Time;durP1;ratioP1;P1;durP2;ratioP2;P2;SDS_P1;SDS_P2;PMS_P1;PMS_P2;Temp;Humidity;BMP_temperature;BMP_pressure;BME280_temperature;BME280_humidity;BME280_pressure;Samples;Min_cycle;Max_cycle;Signal;HPM_P1;HPM_P2
2021/12/31 00:01:09;;;;;;;0.40;0.40;;;;;;;;;;5033858;28;20211;-65
2021/12/31 00:03:35;;;;;;;0.40;0.40;;;;;;;;;;5033658;28;20914;-65
2021/12/31 00:06:01;;;;;;;0.50;0.50;;;;;;;;;;5033861;28;20782;-65
2021/12/31 00:08:27;;;;;;;0.50;0.50;;;;;;;;;;5015967;28;20264;-65
2021/12/31 00:10:59;;;;;;;0.40;0.40;;;;;;;;;;5033604;28;20427;-65
2021/12/31 00:13:25;;;;;;;0.45;0.45;;;;;;;;;;5033595;28;20961;-65
2021/12/31 00:15:51;;;;;;;0.40;0.40;;;;;;;;;;5033721;28;20176;-65
2021/12/31 00:18:17;;;;;;;0.40;0.40;;;;;;;;;;5033657;28;20176;-65
2021/12/31 00:20:43;;;;;;;0.40;0.40;;;;;;;;;;5033650;28;20421;-65
2021/12/31 00:23:12;;;;;;;0.40;0.40;;;;;;;;;;5015747;28;20818;-65
2021/12/31 00:25:40;;;;;;;0.40;0.40;;;;;;;;;;5033541;28;20853;-65
2021/12/31 00:28:06;;;;;;;0.40;0.40;;;;;;;;;;5033373;28;20295;-65
2021/12/31 00:30:33;;;;;;;0.40;0.40;;;;;;;;;;5033330;28;20188;-65
2021/12/31 00:33:01;;;;;;;0.40;0.40;;;;;;;;;;5033084;28;20172;-65
2021/12/31 00:35:27;;;;;;;0.40;0.40;;;;;;;;;;5033318;28;20791;-65
2021/12/31 00:37:53;;;;;;;0.40;0.40;;;;;;;;;;5033207;28;20177;-65
2021/12/31 00:40:19;;;;;;;0.40;0.40;;;;;;;;;;5015371;28;20406;-65
2021/12/31 00:42:46;;;;;;;0.40;0.40;;;;;;;;;;5032982;28;20404;-65
2021/12/31 00:45:13;;;;;;;0.40;0.40;;;;;;;;;;5032408;28;20411;-65
2021/12/31 00:47:39;;;;;;;0.50;0.50;;;;;;;;;;5033045;28;20439;-65
2021/12/31 00:50:06;;;;;;;0.40;0.40;;;;;;;;;;5033028;28;20442;-65
2021/12/31 00:52:32;;;;;;;0.40;0.40;;;;;;;;;;5032758;28;20765;-65
2021/12/31 00:54:57;;;;;;;0.40;0.40;;;;;;;;;;5032879;28;20212;-65
2021/12/31 00:57:23;;;;;;;0.40;0.40;;;;;;;;;;5032895;28;20226;-65
2021/12/31 00:59:49;;;;;;;0.40;0.40;;;;;;;;;;5032732;28;20432;-65
2021/12/31 01:02:17;;;;;;;0.40;0.40;;;;;;;;;;5032773;28;20471;-65
2021/12/31 01:04:43;;;;;;;0.40;0.40;;;;;;;;;;5032548;28;20463;-65
2021/12/31 01:07:09;;;;;;;0.40;0.40;;;;;;;;;;5032651;28;20177;-65
2021/12/31 01:09:36;;;;;;;0.40;0.40;;;;;;;;;;5032598;28;20219;-65
2021/12/31 01:12:03;;;;;;;0.40;0.40;;;;;;;;;;5032671;28;20181;-65
2021/12/31 01:17:01;;;;;;;0.40;0.40;;;;;;;;;;5032611;28;20670;-65
2021/12/31 01:21:55;;;;;;;0.40;0.40;;;;;;;;;;5032474;28;20710;-65
2021/12/31 01:24:25;;;;;;;0.40;0.40;;;;;;;;;;5032169;28;20540;-65
2021/12/31 01:26:51;;;;;;;0.40;0.40;;;;;;;;;;5032488;28;20659;-65
2021/12/31 01:29:17;;;;;;;0.40;0.40;;;;;;;;;;5032268;28;20435;-65
2021/12/31 01:31:43;;;;;;;0.40;0.40;;;;;;;;;;5014484;28;20465;-65
2021/12/31 01:34:09;;;;;;;0.40;0.40;;;;;;;;;;5031866;28;21045;-65
2021/12/31 01:36:35;;;;;;;0.40;0.40;;;;;;;;;;5032117;28;20439;-65
2021/12/31 01:39:01;;;;;;;0.40;0.40;;;;;;;;;;5032107;28;20462;-65
2021/12/31 01:41:27;;;;;;;0.50;0.50;;;;;;;;;;5032082;28;20473;-65
2021/12/31 01:43:53;;;;;;;0.40;0.40;;;;;;;;;;5031812;28;20494;-65
2021/12/31 01:46:19;;;;;;;0.40;0.40;;;;;;;;;;5031955;28;20404;-65
2021/12/31 01:51:23;;;;;;;0.40;0.40;;;;;;;;;;5032487;28;20216;-65
2021/12/31 01:53:49;;;;;;;0.40;0.40;;;;;;;;;;5021251;28;20247;-65
2021/12/31 01:56:16;;;;;;;0.40;0.40;;;;;;;;;;5010998;28;20177;-65
2021/12/31 01:58:42;;;;;;;0.40;0.40;;;;;;;;;;5010478;28;20182;-65
2021/12/31 02:01:08;;;;;;;0.43;0.43;;;;;;;;;;5011696;28;20217;-65
2021/12/31 02:03:34;;;;;;;0.40;0.40;;;;;;;;;;5011604;28;20755;-65
2021/12/31 02:06:01;;;;;;;0.40;0.40;;;;;;;;;;5010718;28;20943;-65
2021/12/31 02:08:28;;;;;;;0.40;0.40;;;;;;;;;;5011886;28;20640;-65
2021/12/31 02:10:54;;;;;;;0.40;0.40;;;;;;;;;;4994151;28;20692;-65
2021/12/31 02:13:21;;;;;;;0.40;0.40;;;;;;;;;;5011600;28;20177;-65
2021/12/31 02:15:47;;;;;;;0.40;0.40;;;;;;;;;;5011718;28;20511;-65
2021/12/31 02:18:13;;;;;;;0.40;0.40;;;;;;;;;;5011814;28;20223;-64
2021/12/31 02:20:45;;;;;;;0.40;0.40;;;;;;;;;;5011698;28;20193;-65
2021/12/31 02:23:15;;;;;;;0.40;0.40;;;;;;;;;;5011706;28;20166;-64
2021/12/31 02:25:41;;;;;;;0.40;0.40;;;;;;;;;;5011981;28;20608;-64
2021/12/31 02:28:07;;;;;;;0.47;0.47;;;;;;;;;;5011705;28;20588;-65
2021/12/31 02:30:33;;;;;;;0.40;0.40;;;;;;;;;;5011646;28;20190;-65
2021/12/31 02:32:59;;;;;;;0.40;0.40;;;;;;;;;;5011507;28;20428;-65
2021/12/31 02:35:26;;;;;;;0.45;0.45;;;;;;;;;;5011724;28;21031;-65
2021/12/31 02:37:52;;;;;;;0.40;0.40;;;;;;;;;;5011373;28;20184;-65
2021/12/31 02:40:19;;;;;;;0.40;0.40;;;;;;;;;;5011434;28;20721;-65
2021/12/31 02:42:45;;;;;;;0.40;0.40;;;;;;;;;;5011257;28;20185;-64
2021/12/31 02:45:12;;;;;;;0.40;0.40;;;;;;;;;;5011668;28;20228;-64
2021/12/31 02:47:43;;;;;;;0.40;0.40;;;;;;;;;;5011577;28;20180;-65
2021/12/31 02:50:11;;;;;;;0.40;0.40;;;;;;;;;;5011639;28;20280;-65
2021/12/31 02:52:37;;;;;;;0.40;0.40;;;;;;;;;;5010726;28;20312;-64
2021/12/31 02:55:04;;;;;;;0.40;0.40;;;;;;;;;;4993835;28;20300;-64
2021/12/31 02:57:30;;;;;;;0.40;0.40;;;;;;;;;;5011411;28;20417;-65
2021/12/31 02:59:56;;;;;;;0.40;0.40;;;;;;;;;;5011097;28;20703;-65
2021/12/31 03:02:24;;;;;;;0.43;0.43;;;;;;;;;;5011418;28;20181;-64
2021/12/31 03:04:52;;;;;;;0.40;0.40;;;;;;;;;;5011360;28;20416;-64
2021/12/31 03:07:18;;;;;;;0.40;0.40;;;;;;;;;;4994823;28;20575;-65
2021/12/31 03:09:47;;;;;;;0.40;0.40;;;;;;;;;;5015046;28;20616;-65
2021/12/31 03:12:13;;;;;;;0.40;0.40;;;;;;;;;;5015025;28;20517;-65
2021/12/31 03:14:43;;;;;;;0.50;0.50;;;;;;;;;;5014723;28;20296;-65
2021/12/31 03:17:10;;;;;;;0.40;0.40;;;;;;;;;;5015005;28;20253;-65
2021/12/31 03:19:36;;;;;;;0.50;0.50;;;;;;;;;;5014878;28;20190;-65
2021/12/31 03:22:02;;;;;;;0.40;0.40;;;;;;;;;;5014958;28;20177;-65
2021/12/31 03:24:28;;;;;;;0.40;0.40;;;;;;;;;;5014669;28;20177;-64
2021/12/31 03:26:54;;;;;;;0.50;0.50;;;;;;;;;;5014732;28;20231;-65
2021/12/31 03:29:20;;;;;;;0.50;0.50;;;;;;;;;;5014720;28;20409;-65
2021/12/31 03:31:46;;;;;;;0.40;0.40;;;;;;;;;;5014696;28;20265;-65
2021/12/31 03:34:14;;;;;;;0.40;0.40;;;;;;;;;;5014419;28;20739;-65
2021/12/31 03:36:40;;;;;;;0.40;0.40;;;;;;;;;;5014604;28;20923;-65
2021/12/31 03:39:06;;;;;;;0.50;0.50;;;;;;;;;;5014679;28;20170;-65
2021/12/31 03:41:32;;;;;;;0.50;0.50;;;;;;;;;;5014682;28;20284;-64
2021/12/31 03:43:58;;;;;;;0.50;0.50;;;;;;;;;;5014361;28;20409;-64
2021/12/31 03:46:24;;;;;;;0.40;0.40;;;;;;;;;;5014731;28;20412;-65
2021/12/31 03:48:50;;;;;;;0.50;0.50;;;;;;;;;;5014584;28;20412;-64
2021/12/31 03:51:16;;;;;;;0.40;0.40;;;;;;;;;;5015090;28;20891;-64
2021/12/31 03:53:42;;;;;;;0.40;0.40;;;;;;;;;;5014987;28;20970;-64
2021/12/31 03:56:08;;;;;;;0.40;0.40;;;;;;;;;;5015071;28;20412;-64
2021/12/31 03:58:34;;;;;;;0.40;0.40;;;;;;;;;;5014960;28;20463;-64
2021/12/31 04:01:00;;;;;;;0.40;0.40;;;;;;;;;;5047229;22;21006;-67
2021/12/31 04:03:26;;;;;;;0.40;0.40;;;;;;;;;;5073394;28;20766;-65
2021/12/31 04:05:53;;;;;;;0.40;0.40;;;;;;;;;;5073834;28;20956;-66
2021/12/31 04:08:19;;;;;;;0.40;0.40;;;;;;;;;;5074007;28;20802;-66
2021/12/31 04:10:45;;;;;;;0.50;0.50;;;;;;;;;;5073728;28;20175;-66
2021/12/31 04:13:11;;;;;;;0.40;0.40;;;;;;;;;;5073519;28;20167;-66
2021/12/31 04:15:37;;;;;;;0.40;0.40;;;;;;;;;;5073720;28;20410;-66
2021/12/31 04:18:03;;;;;;;0.40;0.40;;;;;;;;;;5073433;28;20167;-67
2021/12/31 04:20:36;;;;;;;0.40;0.40;;;;;;;;;;5072894;28;20409;-66
2021/12/31 04:23:03;;;;;;;0.40;0.40;;;;;;;;;;5073601;28;20393;-66
2021/12/31 04:25:29;;;;;;;0.40;0.40;;;;;;;;;;5073712;28;20174;-66
2021/12/31 04:27:55;;;;;;;0.40;0.40;;;;;;;;;;5073426;28;20379;-66
2021/12/31 04:30:21;;;;;;;0.40;0.40;;;;;;;;;;5073600;28;20171;-65
2021/12/31 04:32:47;;;;;;;0.40;0.40;;;;;;;;;;5073387;28;20192;-66
2021/12/31 04:35:13;;;;;;;0.40;0.40;;;;;;;;;;5073414;28;20206;-64
2021/12/31 04:37:42;;;;;;;0.40;0.40;;;;;;;;;;5073304;28;20171;-66
2021/12/31 04:40:09;;;;;;;0.40;0.40;;;;;;;;;;5073311;28;20228;-66
2021/12/31 04:42:35;;;;;;;0.40;0.40;;;;;;;;;;5073034;28;20226;-65
2021/12/31 04:45:02;;;;;;;0.50;0.50;;;;;;;;;;5073197;28;20187;-66
2021/12/31 04:47:28;;;;;;;0.50;0.50;;;;;;;;;;5073173;28;20182;-64
2021/12/31 04:49:54;;;;;;;0.40;0.40;;;;;;;;;;5073177;28;20584;-65
2021/12/31 04:52:19;;;;;;;0.40;0.40;;;;;;;;;;5072966;28;20983;-66
2021/12/31 04:54:45;;;;;;;0.40;0.40;;;;;;;;;;5072674;28;20441;-65
2021/12/31 04:57:11;;;;;;;0.40;0.40;;;;;;;;;;5073020;28;20398;-66
2021/12/31 04:59:37;;;;;;;0.40;0.40;;;;;;;;;;5072814;28;20394;-66
2021/12/31 05:02:03;;;;;;;0.40;0.40;;;;;;;;;;5072711;28;20812;-67
2021/12/31 05:04:29;;;;;;;0.40;0.40;;;;;;;;;;5072797;28;20943;-66
2021/12/31 05:06:55;;;;;;;0.40;0.40;;;;;;;;;;5072736;28;20183;-65
2021/12/31 05:09:21;;;;;;;0.40;0.40;;;;;;;;;;5072579;28;20402;-65
2021/12/31 05:11:47;;;;;;;0.40;0.40;;;;;;;;;;5072584;28;20425;-64
2021/12/31 05:14:13;;;;;;;0.40;0.40;;;;;;;;;;5072445;28;20452;-65
2021/12/31 05:16:39;;;;;;;0.40;0.40;;;;;;;;;;5072633;28;20198;-65
2021/12/31 05:19:05;;;;;;;0.40;0.40;;;;;;;;;;5072543;28;20175;-64
2021/12/31 05:21:32;;;;;;;0.40;0.40;;;;;;;;;;5072455;28;20425;-64
2021/12/31 05:23:58;;;;;;;0.50;0.50;;;;;;;;;;5072169;28;20203;-65
2021/12/31 05:26:24;;;;;;;0.40;0.40;;;;;;;;;;5072415;28;20709;-66
2021/12/31 05:28:50;;;;;;;0.40;0.40;;;;;;;;;;5072487;28;20175;-65
2021/12/31 05:31:16;;;;;;;0.40;0.40;;;;;;;;;;5090930;28;20221;-68
2021/12/31 05:33:42;;;;;;;0.50;0.50;;;;;;;;;;5092781;28;20246;-68
2021/12/31 05:36:08;;;;;;;0.40;0.40;;;;;;;;;;5079968;28;20460;-65
2021/12/31 05:38:35;;;;;;;0.40;0.40;;;;;;;;;;5072644;28;20412;-64
2021/12/31 05:41:01;;;;;;;0.40;0.40;;;;;;;;;;5072126;28;20425;-66
2021/12/31 05:43:27;;;;;;;0.40;0.40;;;;;;;;;;5071950;28;20168;-67
2021/12/31 05:45:53;;;;;;;0.50;0.50;;;;;;;;;;5072141;28;20254;-67
2021/12/31 05:48:19;;;;;;;0.40;0.40;;;;;;;;;;5072129;28;20194;-64
2021/12/31 05:50:45;;;;;;;0.50;0.50;;;;;;;;;;5072091;28;20800;-64
2021/12/31 05:53:11;;;;;;;0.40;0.40;;;;;;;;;;5071737;28;20163;-65
2021/12/31 05:55:37;;;;;;;0.50;0.50;;;;;;;;;;5071960;28;20439;-64
2021/12/31 05:58:03;;;;;;;0.40;0.40;;;;;;;;;;5071993;28;20406;-66
2021/12/31 06:00:29;;;;;;;0.40;0.40;;;;;;;;;;5071964;28;20483;-65
2021/12/31 06:02:59;;;;;;;0.40;0.40;;;;;;;;;;5071467;28;20445;-65
2021/12/31 06:05:27;;;;;;;0.40;0.40;;;;;;;;;;5072108;28;20174;-65
2021/12/31 06:07:55;;;;;;;0.40;0.40;;;;;;;;;;5071954;28;20171;-66
2021/12/31 06:10:21;;;;;;;0.40;0.40;;;;;;;;;;5071837;28;20174;-66
2021/12/31 06:12:47;;;;;;;0.40;0.40;;;;;;;;;;5071530;28;20191;-66
2021/12/31 06:15:16;;;;;;;0.50;0.50;;;;;;;;;;5053467;28;20251;-66
2021/12/31 06:17:42;;;;;;;0.50;0.50;;;;;;;;;;5071721;28;20780;-67
2021/12/31 06:20:10;;;;;;;0.40;0.40;;;;;;;;;;5071657;28;20175;-68
2021/12/31 06:22:36;;;;;;;0.50;0.50;;;;;;;;;;5071475;28;20198;-65
2021/12/31 06:25:02;;;;;;;0.40;0.40;;;;;;;;;;5054597;28;20175;-65
2021/12/31 06:27:28;;;;;;;0.43;0.43;;;;;;;;;;5072568;28;20175;-66
2021/12/31 06:29:53;;;;;;;0.40;0.40;;;;;;;;;;5072216;28;20175;-67
2021/12/31 06:32:19;;;;;;;0.50;0.50;;;;;;;;;;5071979;28;20507;-65
2021/12/31 06:34:45;;;;;;;0.50;0.50;;;;;;;;;;5071541;28;20456;-65
2021/12/31 06:37:11;;;;;;;0.40;0.40;;;;;;;;;;5053734;28;20516;-65
2021/12/31 06:39:37;;;;;;;0.40;0.40;;;;;;;;;;5072176;28;20413;-66
2021/12/31 06:42:07;;;;;;;0.47;0.47;;;;;;;;;;5054870;28;20441;-66
2021/12/31 06:44:33;;;;;;;0.50;0.50;;;;;;;;;;5075581;28;20179;-67
2021/12/31 06:46:59;;;;;;;0.40;0.40;;;;;;;;;;5076154;28;20220;-67
2021/12/31 06:49:25;;;;;;;0.40;0.40;;;;;;;;;;5075775;28;20787;-67
2021/12/31 06:51:51;;;;;;;0.40;0.40;;;;;;;;;;5075694;28;21058;-66
2021/12/31 06:54:17;;;;;;;0.40;0.40;;;;;;;;;;5075252;28;20510;-66
2021/12/31 06:56:43;;;;;;;0.40;0.40;;;;;;;;;;5075457;28;20409;-66
2021/12/31 06:59:09;;;;;;;0.40;0.40;;;;;;;;;;5075302;28;20503;-66
2021/12/31 07:01:35;;;;;;;0.40;0.40;;;;;;;;;;5075177;28;20854;-66
2021/12/31 07:04:01;;;;;;;0.40;0.40;;;;;;;;;;5075077;28;20427;-66
2021/12/31 07:06:27;;;;;;;0.50;0.50;;;;;;;;;;5075587;28;20181;-67
2021/12/31 07:08:53;;;;;;;0.50;0.50;;;;;;;;;;5075300;28;20433;-66
2021/12/31 07:11:22;;;;;;;0.50;0.50;;;;;;;;;;5075695;28;20421;-67
2021/12/31 07:13:48;;;;;;;0.40;0.40;;;;;;;;;;5075195;28;20199;-66
2021/12/31 07:16:15;;;;;;;0.50;0.50;;;;;;;;;;5074972;28;20199;-65
2021/12/31 07:18:41;;;;;;;0.40;0.40;;;;;;;;;;5075274;28;20190;-65
2021/12/31 07:21:07;;;;;;;0.40;0.40;;;;;;;;;;5074843;28;20187;-67
2021/12/31 07:23:33;;;;;;;0.40;0.40;;;;;;;;;;5074430;28;20397;-66
2021/12/31 07:25:59;;;;;;;0.40;0.40;;;;;;;;;;5074778;28;20405;-67
2021/12/31 07:28:25;;;;;;;0.40;0.40;;;;;;;;;;5074715;28;20402;-66
2021/12/31 07:30:51;;;;;;;0.40;0.40;;;;;;;;;;5074578;28;20191;-66
2021/12/31 07:33:18;;;;;;;0.40;0.40;;;;;;;;;;5074306;28;20598;-68
2021/12/31 07:35:45;;;;;;;0.40;0.40;;;;;;;;;;5074654;28;20394;-66
2021/12/31 07:38:19;;;;;;;0.40;0.40;;;;;;;;;;5074377;28;20666;-66
2021/12/31 07:40:45;;;;;;;0.40;0.40;;;;;;;;;;5074339;28;20175;-66
2021/12/31 07:43:11;;;;;;;0.40;0.40;;;;;;;;;;5074077;28;20194;-67
2021/12/31 07:45:38;;;;;;;0.50;0.50;;;;;;;;;;5074277;28;20250;-66
2021/12/31 07:48:04;;;;;;;0.40;0.40;;;;;;;;;;5074290;28;20176;-66
2021/12/31 07:50:30;;;;;;;0.40;0.40;;;;;;;;;;5074313;28;20179;-66
2021/12/31 07:52:56;;;;;;;0.50;0.50;;;;;;;;;;5073532;28;20245;-67
2021/12/31 07:55:22;;;;;;;0.40;0.40;;;;;;;;;;5074127;28;20559;-66
2021/12/31 07:57:48;;;;;;;0.40;0.40;;;;;;;;;;5071435;28;20696;-65
2021/12/31 08:00:15;;;;;;;0.40;0.40;;;;;;;;;;5053822;28;20177;-66
2021/12/31 08:02:41;;;;;;;0.40;0.40;;;;;;;;;;5053535;28;20556;-65
2021/12/31 08:05:07;;;;;;;0.40;0.40;;;;;;;;;;5053754;28;20194;-65
2021/12/31 08:07:33;;;;;;;0.40;0.40;;;;;;;;;;5053939;28;20179;-65
2021/12/31 08:09:59;;;;;;;0.40;0.40;;;;;;;;;;5035995;28;20247;-67
2021/12/31 08:12:25;;;;;;;0.40;0.40;;;;;;;;;;5053783;28;20439;-65
2021/12/31 08:14:51;;;;;;;0.50;0.50;;;;;;;;;;5053081;28;20454;-66
2021/12/31 08:17:17;;;;;;;0.40;0.40;;;;;;;;;;5053746;28;20171;-66
2021/12/31 08:19:43;;;;;;;0.40;0.40;;;;;;;;;;5053747;28;20176;-66
2021/12/31 08:22:09;;;;;;;0.50;0.50;;;;;;;;;;5035596;28;20196;-66
2021/12/31 08:24:35;;;;;;;0.40;0.40;;;;;;;;;;5053367;28;20494;-66
2021/12/31 08:27:01;;;;;;;0.40;0.40;;;;;;;;;;5053104;28;20258;-67
2021/12/31 08:29:27;;;;;;;0.40;0.40;;;;;;;;;;5053381;28;21008;-66
2021/12/31 08:31:53;;;;;;;0.40;0.40;;;;;;;;;;5053470;28;20848;-64
2021/12/31 08:34:19;;;;;;;0.40;0.40;;;;;;;;;;5052954;28;21030;-66
2021/12/31 08:36:45;;;;;;;0.40;0.40;;;;;;;;;;5053083;28;20429;-66
2021/12/31 08:39:12;;;;;;;0.40;0.40;;;;;;;;;;5053148;28;20406;-66
2021/12/31 08:41:38;;;;;;;0.40;0.40;;;;;;;;;;5053343;28;20433;-66
2021/12/31 08:44:05;;;;;;;0.40;0.40;;;;;;;;;;5053080;28;20172;-66
2021/12/31 08:46:32;;;;;;;0.40;0.40;;;;;;;;;;5053203;28;20187;-66
2021/12/31 08:48:57;;;;;;;0.40;0.40;;;;;;;;;;5052863;28;20195;-65
2021/12/31 08:51:24;;;;;;;0.40;0.40;;;;;;;;;;5052790;28;20532;-66
2021/12/31 08:53:50;;;;;;;0.40;0.40;;;;;;;;;;5052603;28;20462;-66
2021/12/31 08:56:16;;;;;;;0.40;0.40;;;;;;;;;;5065215;28;20194;-66
2021/12/31 08:58:42;;;;;;;0.40;0.40;;;;;;;;;;5058455;28;20403;-65
2021/12/31 09:01:08;;;;;;;0.40;0.40;;;;;;;;;;5075286;28;20958;-67
2021/12/31 09:03:34;;;;;;;0.40;0.40;;;;;;;;;;5074032;28;20406;-65
2021/12/31 09:06:00;;;;;;;0.40;0.40;;;;;;;;;;5053527;28;20172;-63
2021/12/31 09:08:26;;;;;;;0.50;0.50;;;;;;;;;;5053119;28;20411;-65
2021/12/31 09:10:52;;;;;;;0.40;0.40;;;;;;;;;;5052944;28;20418;-65
2021/12/31 09:13:17;;;;;;;0.40;0.40;;;;;;;;;;5052495;28;20417;-66
2021/12/31 09:15:43;;;;;;;0.40;0.40;;;;;;;;;;5052716;28;20461;-66
2021/12/31 09:18:09;;;;;;;0.50;0.50;;;;;;;;;;5053180;28;20410;-65
2021/12/31 09:20:35;;;;;;;0.40;0.40;;;;;;;;;;5035237;28;20426;-66
2021/12/31 09:23:02;;;;;;;0.40;0.40;;;;;;;;;;5052511;28;20198;-65
2021/12/31 09:25:28;;;;;;;0.40;0.40;;;;;;;;;;5052748;28;20493;-66
2021/12/31 09:27:54;;;;;;;0.50;0.50;;;;;;;;;;5052781;28;20222;-66
2021/12/31 09:30:20;;;;;;;0.40;0.40;;;;;;;;;;5052606;28;20176;-66
2021/12/31 09:32:46;;;;;;;0.50;0.50;;;;;;;;;;5052241;28;20434;-65
2021/12/31 09:35:12;;;;;;;0.40;0.40;;;;;;;;;;5034414;28;20686;-66
2021/12/31 09:37:39;;;;;;;0.40;0.40;;;;;;;;;;5052444;28;20399;-66
2021/12/31 09:40:05;;;;;;;0.40;0.40;;;;;;;;;;5052334;28;20414;-65
2021/12/31 09:42:31;;;;;;;0.40;0.40;;;;;;;;;;5052801;28;20223;-66
2021/12/31 09:44:57;;;;;;;0.40;0.40;;;;;;;;;;5052451;28;20211;-66
2021/12/31 09:47:23;;;;;;;0.40;0.40;;;;;;;;;;5052673;28;20906;-66
2021/12/31 09:49:49;;;;;;;0.40;0.40;;;;;;;;;;5052483;28;20901;-65
2021/12/31 09:52:16;;;;;;;0.40;0.40;;;;;;;;;;5052287;28;20426;-66
2021/12/31 09:54:43;;;;;;;0.47;0.47;;;;;;;;;;5052147;28;20195;-65
2021/12/31 09:57:16;;;;;;;0.40;0.40;;;;;;;;;;5052104;28;20178;-66
2021/12/31 09:59:42;;;;;;;0.40;0.40;;;;;;;;;;5052076;28;20655;-66
2021/12/31 10:02:12;;;;;;;0.40;0.40;;;;;;;;;;5040017;22;20395;-61
2021/12/31 10:04:54;;;;;;;0.40;0.40;;;;;;;;;;5011490;28;20205;-60
2021/12/31 10:07:21;;;;;;;0.40;0.40;;;;;;;;;;5011890;28;20181;-62
2021/12/31 10:10:06;;;;;;;0.40;0.40;;;;;;;;;;5011879;28;20204;-62
2021/12/31 10:12:44;;;;;;;0.40;0.40;;;;;;;;;;5012084;28;20244;-62
2021/12/31 10:15:10;;;;;;;0.40;0.40;;;;;;;;;;5011896;28;20250;-62
2021/12/31 10:17:36;;;;;;;0.50;0.50;;;;;;;;;;5011887;28;20197;-62
2021/12/31 10:20:02;;;;;;;0.40;0.40;;;;;;;;;;5011818;28;20653;-64
2021/12/31 10:22:28;;;;;;;0.40;0.40;;;;;;;;;;5011709;28;20284;-61
2021/12/31 10:24:54;;;;;;;0.50;0.50;;;;;;;;;;5011938;28;20255;-62
2021/12/31 10:27:20;;;;;;;0.40;0.40;;;;;;;;;;5011815;28;20419;-61
2021/12/31 10:29:59;;;;;;;0.40;0.40;;;;;;;;;;5012042;28;20423;-62
2021/12/31 10:32:26;;;;;;;0.40;0.40;;;;;;;;;;5011717;28;20425;-61
2021/12/31 10:34:52;;;;;;;0.40;0.40;;;;;;;;;;5009634;28;20202;-62
2021/12/31 10:37:20;;;;;;;0.50;0.50;;;;;;;;;;5011608;28;20195;-61
2021/12/31 10:39:54;;;;;;;0.50;0.50;;;;;;;;;;4994169;28;20487;-62
2021/12/31 10:42:20;;;;;;;0.40;0.40;;;;;;;;;;5011219;28;20255;-62
2021/12/31 10:44:46;;;;;;;0.50;0.50;;;;;;;;;;5011169;28;20541;-62
2021/12/31 10:47:23;;;;;;;0.50;0.50;;;;;;;;;;5011438;28;20189;-62
2021/12/31 10:50:01;;;;;;;0.50;0.50;;;;;;;;;;5011523;28;20471;-62
2021/12/31 10:52:33;;;;;;;0.40;0.40;;;;;;;;;;5011431;28;20236;-61
2021/12/31 10:55:02;;;;;;;0.40;0.40;;;;;;;;;;5010754;28;20213;-62
2021/12/31 10:57:37;;;;;;;0.40;0.40;;;;;;;;;;5011455;28;20220;-62
2021/12/31 11:00:05;;;;;;;0.50;0.50;;;;;;;;;;5011547;28;20571;-62
2021/12/31 11:02:32;;;;;;;0.40;0.40;;;;;;;;;;5011155;28;20251;-62
2021/12/31 11:04:59;;;;;;;0.40;0.40;;;;;;;;;;5011449;28;20236;-62
2021/12/31 11:07:25;;;;;;;0.40;0.40;;;;;;;;;;5011019;28;20560;-62
2021/12/31 11:09:51;;;;;;;0.40;0.40;;;;;;;;;;5011412;28;20188;-62
2021/12/31 11:12:17;;;;;;;0.40;0.40;;;;;;;;;;5011194;28;20280;-62
2021/12/31 11:14:43;;;;;;;0.40;0.40;;;;;;;;;;5011133;28;20241;-62
2021/12/31 11:17:09;;;;;;;0.43;0.43;;;;;;;;;;5010436;28;20177;-63
2021/12/31 11:19:39;;;;;;;0.40;0.40;;;;;;;;;;5010091;28;20174;-62
2021/12/31 11:22:05;;;;;;;0.50;0.50;;;;;;;;;;5011192;28;20941;-62
2021/12/31 11:24:34;;;;;;;0.40;0.40;;;;;;;;;;5011021;28;20537;-62
2021/12/31 11:27:20;;;;;;;0.40;0.40;;;;;;;;;;5011007;28;20182;-62
2021/12/31 11:29:46;;;;;;;0.40;0.40;;;;;;;;;;5013825;28;20203;-62
2021/12/31 11:32:12;;;;;;;0.40;0.40;;;;;;;;;;5014075;28;20499;-62
2021/12/31 11:34:38;;;;;;;0.40;0.40;;;;;;;;;;5014489;28;20455;-62
2021/12/31 11:37:04;;;;;;;0.40;0.40;;;;;;;;;;5014773;28;20757;-62
2021/12/31 11:39:32;;;;;;;0.50;0.50;;;;;;;;;;5014558;28;20443;-61
2021/12/31 11:42:03;;;;;;;0.40;0.40;;;;;;;;;;5014569;28;20427;-62
2021/12/31 11:44:29;;;;;;;0.40;0.40;;;;;;;;;;5014143;28;20423;-62
2021/12/31 11:47:10;;;;;;;0.30;0.30;;;;;;;;;;5014642;28;20449;-63
2021/12/31 11:49:36;;;;;;;0.40;0.40;;;;;;;;;;5014636;28;20408;-63
2021/12/31 11:52:02;;;;;;;0.30;0.30;;;;;;;;;;5014727;28;20402;-63
2021/12/31 11:54:28;;;;;;;0.40;0.40;;;;;;;;;;5014035;28;20423;-63
2021/12/31 11:56:56;;;;;;;0.40;0.40;;;;;;;;;;5014394;28;20457;-63
2021/12/31 11:59:24;;;;;;;0.30;0.30;;;;;;;;;;5014356;28;20371;-61
2021/12/31 12:01:51;;;;;;;0.30;0.30;;;;;;;;;;5013996;28;20497;-61
2021/12/31 12:04:17;;;;;;;0.30;0.30;;;;;;;;;;5013986;28;20416;-60
2021/12/31 12:06:58;;;;;;;0.30;0.30;;;;;;;;;;5013974;28;20779;-60
2021/12/31 12:09:40;;;;;;;0.30;0.30;;;;;;;;;;5013975;28;20383;-60
2021/12/31 12:12:10;;;;;;;0.30;0.30;;;;;;;;;;5013944;28;20909;-60
2021/12/31 12:14:40;;;;;;;0.30;0.30;;;;;;;;;;5013885;28;20849;-60
2021/12/31 12:17:07;;;;;;;0.30;0.30;;;;;;;;;;5013956;28;20436;-63
2021/12/31 12:19:51;;;;;;;0.30;0.30;;;;;;;;;;5014005;28;20419;-61
2021/12/31 12:22:26;;;;;;;0.30;0.30;;;;;;;;;;5013830;28;20524;-61
2021/12/31 12:24:52;;;;;;;0.30;0.30;;;;;;;;;;5014222;28;20434;-61
2021/12/31 12:27:20;;;;;;;0.30;0.30;;;;;;;;;;5013704;28;20501;-60
2021/12/31 12:29:46;;;;;;;0.30;0.30;;;;;;;;;;5013725;28;20383;-60
2021/12/31 12:32:13;;;;;;;0.30;0.30;;;;;;;;;;5013671;28;20818;-60
2021/12/31 12:34:39;;;;;;;0.30;0.30;;;;;;;;;;5013266;28;20482;-60
2021/12/31 12:37:05;;;;;;;0.30;0.30;;;;;;;;;;5013652;28;20408;-61
2021/12/31 12:39:31;;;;;;;0.30;0.30;;;;;;;;;;4995103;28;20540;-60
2021/12/31 12:41:57;;;;;;;0.30;0.30;;;;;;;;;;5013496;28;20490;-60
2021/12/31 12:44:23;;;;;;;0.30;0.30;;;;;;;;;;5013398;28;20498;-61
2021/12/31 12:46:59;;;;;;;0.30;0.30;;;;;;;;;;5013487;28;20417;-60
2021/12/31 12:49:28;;;;;;;0.30;0.30;;;;;;;;;;5013373;28;20410;-60
2021/12/31 12:51:56;;;;;;;0.30;0.30;;;;;;;;;;5013405;28;20435;-60
2021/12/31 12:54:23;;;;;;;0.30;0.30;;;;;;;;;;5012996;28;20529;-60
2021/12/31 12:56:49;;;;;;;0.30;0.30;;;;;;;;;;5013384;28;20412;-60
2021/12/31 12:59:22;;;;;;;0.30;0.30;;;;;;;;;;5013337;28;20411;-62
2021/12/31 13:01:49;;;;;;;0.30;0.30;;;;;;;;;;5012843;28;20941;-63
2021/12/31 13:04:15;;;;;;;0.30;0.30;;;;;;;;;;5012848;28;20391;-63
2021/12/31 13:06:45;;;;;;;0.30;0.30;;;;;;;;;;5012954;28;20417;-63
2021/12/31 13:09:13;;;;;;;0.40;0.40;;;;;;;;;;5013264;28;20916;-63
2021/12/31 13:11:41;;;;;;;0.33;0.33;;;;;;;;;;5012730;28;20432;-63
2021/12/31 13:14:12;;;;;;;0.30;0.30;;;;;;;;;;5012491;28;20514;-63
2021/12/31 13:16:38;;;;;;;0.33;0.33;;;;;;;;;;5012737;28;20387;-63
2021/12/31 13:19:08;;;;;;;0.30;0.30;;;;;;;;;;5012472;28;20389;-63
2021/12/31 13:21:35;;;;;;;0.40;0.40;;;;;;;;;;5012669;28;20438;-62
2021/12/31 13:24:01;;;;;;;0.37;0.37;;;;;;;;;;5012520;28;20503;-63
2021/12/31 13:26:31;;;;;;;0.40;0.40;;;;;;;;;;5012429;28;20387;-63
2021/12/31 13:28:58;;;;;;;0.40;0.40;;;;;;;;;;5012532;28;20409;-63
2021/12/31 13:31:34;;;;;;;0.40;0.40;;;;;;;;;;5012588;28;20387;-63
2021/12/31 13:34:14;;;;;;;0.40;0.40;;;;;;;;;;5012245;28;20480;-62
2021/12/31 13:36:53;;;;;;;0.40;0.40;;;;;;;;;;5012417;28;20506;-63
2021/12/31 13:39:31;;;;;;;0.40;0.40;;;;;;;;;;5012172;28;20416;-62
2021/12/31 13:42:01;;;;;;;0.40;0.40;;;;;;;;;;5012359;28;20432;-62
2021/12/31 13:44:27;;;;;;;0.40;0.40;;;;;;;;;;5012108;28;20422;-62
2021/12/31 13:47:22;;;;;;;0.40;0.40;;;;;;;;;;5012294;28;20426;-62
2021/12/31 13:49:52;;;;;;;0.40;0.40;;;;;;;;;;5003676;28;20814;-62
2021/12/31 13:52:22;;;;;;;0.40;0.40;;;;;;;;;;5011724;28;20442;-62
2021/12/31 13:54:49;;;;;;;0.40;0.40;;;;;;;;;;5011703;28;20879;-62
2021/12/31 13:57:19;;;;;;;0.40;0.40;;;;;;;;;;5012290;28;20193;-63
2021/12/31 13:59:46;;;;;;;0.40;0.40;;;;;;;;;;5012312;28;20415;-63
2021/12/31 14:02:20;;;;;;;0.40;0.40;;;;;;;;;;5011980;28;20961;-62
2021/12/31 14:04:58;;;;;;;0.40;0.40;;;;;;;;;;5011982;28;20422;-62
2021/12/31 14:07:35;;;;;;;0.40;0.40;;;;;;;;;;5011881;28;20419;-62
2021/12/31 14:10:02;;;;;;;0.40;0.40;;;;;;;;;;5011947;28;20414;-63
2021/12/31 14:12:29;;;;;;;0.40;0.40;;;;;;;;;;5011492;28;20439;-62
2021/12/31 14:14:55;;;;;;;0.35;0.35;;;;;;;;;;5011776;28;20491;-63
2021/12/31 14:17:21;;;;;;;0.40;0.40;;;;;;;;;;5011812;28;20223;-62
2021/12/31 14:19:47;;;;;;;0.40;0.40;;;;;;;;;;5011746;28;20411;-62
2021/12/31 14:22:13;;;;;;;0.40;0.40;;;;;;;;;;5011666;28;20794;-62
2021/12/31 14:24:39;;;;;;;0.40;0.40;;;;;;;;;;5011556;28;20423;-63
2021/12/31 14:27:09;;;;;;;0.40;0.40;;;;;;;;;;5011569;28;20412;-63
2021/12/31 14:29:37;;;;;;;0.40;0.40;;;;;;;;;;5010843;28;20407;-62
2021/12/31 14:32:03;;;;;;;0.40;0.40;;;;;;;;;;5011408;28;20411;-62
2021/12/31 14:34:31;;;;;;;0.40;0.40;;;;;;;;;;5010258;28;20450;-62
2021/12/31 14:37:02;;;;;;;0.40;0.40;;;;;;;;;;5010696;28;20413;-62
2021/12/31 14:39:28;;;;;;;0.40;0.40;;;;;;;;;;5011596;28;20406;-62
2021/12/31 14:41:55;;;;;;;0.40;0.40;;;;;;;;;;5011453;28;20800;-62
2021/12/31 14:44:22;;;;;;;0.40;0.40;;;;;;;;;;5011252;28;20730;-62
2021/12/31 14:46:49;;;;;;;0.40;0.40;;;;;;;;;;5011559;28;20216;-63
2021/12/31 14:49:15;;;;;;;0.50;0.50;;;;;;;;;;5011406;28;20428;-63
2021/12/31 14:51:41;;;;;;;0.40;0.40;;;;;;;;;;5011362;28;20439;-62